Stateburg, South Carolina
Current Conditions -  °F | °C
As of 4:55 PM on Thursday 27 Nov 2014 (Local Time) from KSMS Reporting Station
Clear Clear  
Wind Chill: 52°   Ceiling: Unl
Heat Index: 52°   Visibility: 10mi
Dew Point: 30°   Wind: 6mph
Humidity: 44%   Direction: 300°WNW
Pressure: 30.16"   Gusts: 13mph
Location:  33.9242°N, 80.1986°W
Report Text: KSMS 272155Z AUTO 30005G11KT 10SM CLR 11/M01 A3016 RMK AO2
Loading
Personal Weather Stations






























Interactive Weather Map New forecast layout! Learn more

10-Day Weather Forecast

Advertisements
Track Severe Weather on mobile